Scroll down
FLIGHT INFORMATION
Delta Air Lines

DAL601

At Arrival Gate

KORD
 KPHX
DATE: 2020-05-23
GATE:  -
GATE DEPARTURE: 22:55
TAKEOFF: 23:05
DATE: 2020-05-24
GATE:  -
LANDING: 02:02
GATE ARRIVAL: 02:11
FLIGHT DATA
Crew: 
Speed: 
533 kts
Altitude: 
38,020 ft
Stage Length: 
1,249.1 nm
Block Time: 
3.3 hrs
Flight Time: 
3 hrs
Fuel Used: 
74,550 lb
Cleared Route: KORD ACITO ADELL ARLYN SPI HLV BUM DOSOA ROKNE ICT VARNR LBL FTI ZUN DOJOE SLIDR TINIZ PAYSO EAGUL HOMRR VNNOM ESDEE BASSL DERVL JAGAL RW26
TRACK DATA
50,000 ft 1,000 kts
AIRCRAFT INFO AND CUMULATIVE STATS
Aircraft Type: 
B744
Registration: 
SELCAL: 
EGKP
MSN/LN: 
23720 / 708
Operator: 
Total Flights: 
2
Total Block Time: 
4.8 hrs
Total Flight Time: 
4.3 hrs
Total Fuel Time: 
115,066 lb
DATALINK LOG | Newest first | Current as of: 2020-12-06 01:15:17
LABEL SEQUENCE CONTENT Dn/Up
QD133602:11 47.4▼ Dn
QC042802:02▼ Dn
2U1959KPHX 240051Z 26010KT 230V290 10SM BKN250 BKN290 32/M05 A2969 RMK AO2 SLP036 T03221050▲ Up
5Z204524 MAY 20 01:19:33z / FLT DECK GOOD / ACF POS GOOD / GRND SERVICES GOOD / MAINT GOOD▼ Dn
GA2045ADVANCED GATE ASSIGNMENTS NOT YET AVAILABLE AT THIS AIRPORT▲ Up
GR2045KPHX 02:00 MAAS 00 YP/UM 01/02 WCHR/S/C 03/04/05 HI-VAL YES DIPL/VIP NO▼ Dn
2S2044KPHX▼ Dn
UM232944DESCEND TO 240▲ Up
UM151954AT 29 PAST THE HOUR EXPECT DESCENT TO 240▲ Up
DM67I1943WHEN CAN WE EXPECT DESCENT TO FL 240▼ Dn
UM205429CLEARED TO FL 380▲ Up
DM65418REQUEST FL 380 DUE TO WX▼ Dn
UM742966PROCEED DIRECT TO HLV▲ Up
DM222956REQUEST DIRECT TO HLV DUE TO WX▼ Dn
UM0 UM961552UNABLE. CONTINUE PRESENT HEADING▲ Up
DM221542REQUEST DIRECT TO SPI DUE TO WX▼ Dn
UM201350CLEARED TO FL 360▲ Up
DM61340REQUEST FL 360 DUE TO WX▼ Dn
QB073423:05▼ Dn
QA562422:55 121.9▼ Dn
5U3724KPHX 240235Z 24009G18KT 10SM FEW200 33/M05 A2972▲ Up
2U3721KORD 232151Z 15009KT 10SM FEW012 BKN070 BKN110 BKN250 23/20 A2984 RMK AO2 LTG DSNT E-S RAE33 TSE17 SLP103 P0003 T02330200 $▲ Up
5S3907KPHX▼ Dn
2S3907KORD▼ Dn
A33715CLEARED TO KPHX VIA ACITO ADELL ARLYN SPI HLV BUM J19 ROKNE J19 FTI J244 ZUN EAGUL6. SQUAWK 4503.▲ Up
Q03605[LINK ACK]▲ Up
Q03605[LINK TEST]▼ Dn


AIRCRAFT HISTORY
FLIGHT DATE FLIGHT NO. ORIGIN DESTINATION CLEARED ROUTE BLOCK TIME FLIGHT TIME FUEL USED PILOT
2020-05-23DAL601KORD KPHX KORD ACITO ADELL ARLYN SPI HLV BUM DOSOA ROKNE ICT VARNR LBL FTI ZUN DOJOE SLIDR TINIZ PAYSO EAGUL HOMRR VNNOM ESDEE BASSL DERVL JAGAL RW263.3 hrs3 hrs74,550 lbGeorge M
2019-11-04DAL812KATL KORD KATL PICKT RONII HOYYT VARNM GLAZR JEDER HELUB VOSTK ROYYZ HEVAN MZZ NYLEN VEECK BOONE HANNI CLUSO KAYTO PINKK MONKZ JORJO POSSM HAZIL RW28C1.6 hrs1.3 hrs40,517 lbGeorge M